Terminal Aerodrome Forecast
Issued by NWS

Home | Current Version | Previous Version | Text Only | Print | Product List | Glossary Off
Versions: 1 2 3 4 5 6 7 8 9 10 11 12 13 14

271
FTUS43 KBIS 250521
TAFMOT
TAF
KMOT 250521Z 2506/2606 29014G21KT P6SM VCSH SCT010 OVC018
     FM251300 30009KT P6SM BKN045
     FM251500 29010G16KT P6SM BKN050
     FM260200 24005KT P6SM SCT050=

USA.gov is the U.S. government's official web portal to all federal, state and local government web resources and services.